SBOSBO JTR / LGSR
Speedbird OnlineSpeedbird Online JTR / LGSR

Santorini Airport
23:12 19.8°C

Location Thira, Greece
Latitude: 36.399200439453125
Longitude: 25.479299545288086
Web Wikipedia
Altitude 39 Meter / 127 Feet
Distance 2,610 KM / 1,622 Miles
from London.
Time Zone UTC +3 hours (Europe/Athens)
Codes IATA: JTR
ICAO: LGSR
Currency £1 equals EUR 1.12
Runways
RunwayLength (m)Surface
152125Asphalt
16R0UNK
332125Asphalt
34L0UNK
Radio
TypeDescriptionFrequency
A/GRDO563.7
APPAPP118.05
TWRTWR118.05
Live ATC
METAR LGSR 241950Z 28004KT CAVOK 20/09 Q1019
TAF TAF LGSR 241700Z 2418/2518 36012KT 9999 FEW025
Weather As Of 24 Sep 2022 23:12
Description Clear sky
Wind 7 km/h from West (280°)
Cloud Cover 0%
Precipitation Rain: none, Snow: none
Sunrise 07:07
Sunset 19:13
Rotations During the last 90 days there were
101 flights from LHR
62 flights from LGW
17 flights from LCY
101 flights to LHR
61 flights to LGW
17 flights to LCY


© 2017-2022 Speedbird Online